sensor_id;sensor_type;location;lat;lon;timestamp;P1;durP1;ratioP1;P2;durP2;ratioP2
7150;SDS011;3617;48.836;9.172;2022-09-21T00:01:19;7.30;;;4.03;;
7150;SDS011;3617;48.836;9.172;2022-09-21T00:03:45;6.70;;;3.97;;
7150;SDS011;3617;48.836;9.172;2022-09-21T00:06:13;6.53;;;4.27;;
7150;SDS011;3617;48.836;9.172;2022-09-21T00:08:39;6.27;;;3.83;;
7150;SDS011;3617;48.836;9.172;2022-09-21T00:11:06;5.47;;;4.27;;
7150;SDS011;3617;48.836;9.172;2022-09-21T00:13:32;5.77;;;4.10;;
7150;SDS011;3617;48.836;9.172;2022-09-21T00:16:03;7.47;;;4.30;;
7150;SDS011;3617;48.836;9.172;2022-09-21T00:18:29;7.70;;;4.10;;
7150;SDS011;3617;48.836;9.172;2022-09-21T00:20:56;5.90;;;3.93;;
7150;SDS011;3617;48.836;9.172;2022-09-21T00:23:22;6.93;;;3.97;;
7150;SDS011;3617;48.836;9.172;2022-09-21T00:25:48;7.10;;;4.47;;
7150;SDS011;3617;48.836;9.172;2022-09-21T00:28:14;7.83;;;4.87;;
7150;SDS011;3617;48.836;9.172;2022-09-21T00:30:41;5.60;;;4.07;;
7150;SDS011;3617;48.836;9.172;2022-09-21T00:33:07;8.53;;;4.00;;
7150;SDS011;3617;48.836;9.172;2022-09-21T00:35:33;6.57;;;4.00;;
7150;SDS011;3617;48.836;9.172;2022-09-21T00:37:59;13.17;;;4.40;;
7150;SDS011;3617;48.836;9.172;2022-09-21T00:40:26;6.67;;;4.50;;
7150;SDS011;3617;48.836;9.172;2022-09-21T00:42:52;5.87;;;4.23;;
7150;SDS011;3617;48.836;9.172;2022-09-21T00:45:18;5.93;;;4.23;;
7150;SDS011;3617;48.836;9.172;2022-09-21T00:47:47;6.37;;;4.10;;
7150;SDS011;3617;48.836;9.172;2022-09-21T00:50:16;7.73;;;3.93;;
7150;SDS011;3617;48.836;9.172;2022-09-21T00:52:48;6.97;;;4.00;;
7150;SDS011;3617;48.836;9.172;2022-09-21T00:55:20;7.50;;;4.80;;
7150;SDS011;3617;48.836;9.172;2022-09-21T00:57:47;9.93;;;4.33;;
7150;SDS011;3617;48.836;9.172;2022-09-21T01:00:15;6.63;;;4.50;;
7150;SDS011;3617;48.836;9.172;2022-09-21T01:02:41;6.87;;;4.27;;
7150;SDS011;3617;48.836;9.172;2022-09-21T01:05:08;7.57;;;3.93;;
7150;SDS011;3617;48.836;9.172;2022-09-21T01:07:38;7.63;;;4.67;;
7150;SDS011;3617;48.836;9.172;2022-09-21T01:10:06;9.27;;;4.63;;
7150;SDS011;3617;48.836;9.172;2022-09-21T01:12:44;6.90;;;4.43;;
7150;SDS011;3617;48.836;9.172;2022-09-21T01:17:51;6.93;;;3.80;;
7150;SDS011;3617;48.836;9.172;2022-09-21T01:25:35;6.07;;;3.93;;
7150;SDS011;3617;48.836;9.172;2022-09-21T01:30:28;6.53;;;4.33;;
7150;SDS011;3617;48.836;9.172;2022-09-21T01:32:57;6.97;;;4.60;;
7150;SDS011;3617;48.836;9.172;2022-09-21T01:35:29;6.07;;;4.37;;
7150;SDS011;3617;48.836;9.172;2022-09-21T01:38:01;6.20;;;4.43;;
7150;SDS011;3617;48.836;9.172;2022-09-21T01:40:41;8.50;;;4.67;;
7150;SDS011;3617;48.836;9.172;2022-09-21T01:43:10;7.40;;;4.07;;
7150;SDS011;3617;48.836;9.172;2022-09-21T01:45:39;6.73;;;4.17;;
7150;SDS011;3617;48.836;9.172;2022-09-21T01:48:06;5.77;;;4.13;;
7150;SDS011;3617;48.836;9.172;2022-09-21T01:51:15;8.80;;;4.37;;
7150;SDS011;3617;48.836;9.172;2022-09-21T01:53:23;5.67;;;4.00;;
7150;SDS011;3617;48.836;9.172;2022-09-21T01:55:53;5.97;;;4.00;;
7150;SDS011;3617;48.836;9.172;2022-09-21T01:58:37;6.90;;;3.90;;
7150;SDS011;3617;48.836;9.172;2022-09-21T02:01:04;6.47;;;4.23;;
7150;SDS011;3617;48.836;9.172;2022-09-21T02:03:42;6.43;;;4.67;;
7150;SDS011;3617;48.836;9.172;2022-09-21T02:06:08;7.83;;;4.30;;
7150;SDS011;3617;48.836;9.172;2022-09-21T02:08:35;6.73;;;4.50;;
7150;SDS011;3617;48.836;9.172;2022-09-21T02:11:02;7.10;;;4.07;;
7150;SDS011;3617;48.836;9.172;2022-09-21T02:13:30;5.73;;;3.70;;
7150;SDS011;3617;48.836;9.172;2022-09-21T02:21:12;7.50;;;4.10;;
7150;SDS011;3617;48.836;9.172;2022-09-21T02:24:24;7.20;;;4.17;;
7150;SDS011;3617;48.836;9.172;2022-09-21T02:26:34;7.57;;;4.87;;
7150;SDS011;3617;48.836;9.172;2022-09-21T02:29:09;8.70;;;4.87;;
7150;SDS011;3617;48.836;9.172;2022-09-21T02:34:09;7.03;;;4.43;;
7150;SDS011;3617;48.836;9.172;2022-09-21T02:37:25;5.67;;;4.00;;
7150;SDS011;3617;48.836;9.172;2022-09-21T02:39:34;6.97;;;4.73;;
7150;SDS011;3617;48.836;9.172;2022-09-21T02:49:34;8.37;;;4.70;;
7150;SDS011;3617;48.836;9.172;2022-09-21T02:52:07;5.37;;;4.40;;
7150;SDS011;3617;48.836;9.172;2022-09-21T02:54:35;6.30;;;4.40;;
7150;SDS011;3617;48.836;9.172;2022-09-21T02:57:02;8.07;;;4.37;;
7150;SDS011;3617;48.836;9.172;2022-09-21T02:59:28;5.90;;;4.10;;
7150;SDS011;3617;48.836;9.172;2022-09-21T03:01:55;6.80;;;4.40;;
7150;SDS011;3617;48.836;9.172;2022-09-21T03:04:21;7.30;;;4.13;;
7150;SDS011;3617;48.836;9.172;2022-09-21T03:06:48;6.27;;;4.27;;
7150;SDS011;3617;48.836;9.172;2022-09-21T03:09:14;6.37;;;4.47;;
7150;SDS011;3617;48.836;9.172;2022-09-21T03:11:41;6.43;;;4.00;;
7150;SDS011;3617;48.836;9.172;2022-09-21T03:14:07;6.27;;;4.40;;
7150;SDS011;3617;48.836;9.172;2022-09-21T03:16:34;6.20;;;4.53;;
7150;SDS011;3617;48.836;9.172;2022-09-21T03:19:00;8.70;;;4.73;;
7150;SDS011;3617;48.836;9.172;2022-09-21T03:21:26;8.97;;;5.17;;
7150;SDS011;3617;48.836;9.172;2022-09-21T03:23:52;11.07;;;4.60;;
7150;SDS011;3617;48.836;9.172;2022-09-21T03:26:18;8.80;;;4.73;;
7150;SDS011;3617;48.836;9.172;2022-09-21T03:28:47;7.00;;;4.67;;
7150;SDS011;3617;48.836;9.172;2022-09-21T03:31:14;6.40;;;4.27;;
7150;SDS011;3617;48.836;9.172;2022-09-21T03:33:40;6.90;;;4.67;;
7150;SDS011;3617;48.836;9.172;2022-09-21T03:36:06;7.20;;;4.47;;
7150;SDS011;3617;48.836;9.172;2022-09-21T03:38:32;6.50;;;4.73;;
7150;SDS011;3617;48.836;9.172;2022-09-21T03:40:58;8.63;;;4.47;;
7150;SDS011;3617;48.836;9.172;2022-09-21T03:43:24;8.87;;;5.10;;
7150;SDS011;3617;48.836;9.172;2022-09-21T03:45:51;20.77;;;10.10;;
7150;SDS011;3617;48.836;9.172;2022-09-21T03:48:17;13.93;;;7.27;;
7150;SDS011;3617;48.836;9.172;2022-09-21T03:50:43;12.07;;;7.00;;
7150;SDS011;3617;48.836;9.172;2022-09-21T03:53:09;9.10;;;4.97;;
7150;SDS011;3617;48.836;9.172;2022-09-21T03:55:35;9.33;;;5.07;;
7150;SDS011;3617;48.836;9.172;2022-09-21T03:58:02;8.30;;;5.17;;
7150;SDS011;3617;48.836;9.172;2022-09-21T04:00:28;7.23;;;5.20;;
7150;SDS011;3617;48.836;9.172;2022-09-21T04:02:55;9.07;;;5.13;;
7150;SDS011;3617;48.836;9.172;2022-09-21T04:05:21;10.73;;;5.83;;
7150;SDS011;3617;48.836;9.172;2022-09-21T04:07:47;11.33;;;5.07;;
7150;SDS011;3617;48.836;9.172;2022-09-21T04:10:14;9.10;;;5.60;;
7150;SDS011;3617;48.836;9.172;2022-09-21T04:12:41;13.10;;;6.57;;
7150;SDS011;3617;48.836;9.172;2022-09-21T04:15:11;13.30;;;7.50;;
7150;SDS011;3617;48.836;9.172;2022-09-21T04:17:37;13.77;;;6.73;;
7150;SDS011;3617;48.836;9.172;2022-09-21T04:20:04;12.80;;;6.93;;
7150;SDS011;3617;48.836;9.172;2022-09-21T04:22:30;10.80;;;6.40;;
7150;SDS011;3617;48.836;9.172;2022-09-21T04:24:56;12.60;;;6.33;;
7150;SDS011;3617;48.836;9.172;2022-09-21T04:27:22;9.90;;;5.73;;
7150;SDS011;3617;48.836;9.172;2022-09-21T04:29:48;10.63;;;6.33;;
7150;SDS011;3617;48.836;9.172;2022-09-21T04:32:15;11.07;;;6.00;;
7150;SDS011;3617;48.836;9.172;2022-09-21T04:34:41;10.23;;;5.47;;
7150;SDS011;3617;48.836;9.172;2022-09-21T04:37:07;8.70;;;5.80;;
7150;SDS011;3617;48.836;9.172;2022-09-21T04:39:33;10.93;;;5.97;;
7150;SDS011;3617;48.836;9.172;2022-09-21T04:41:59;10.00;;;6.33;;
7150;SDS011;3617;48.836;9.172;2022-09-21T04:44:26;12.83;;;6.20;;
7150;SDS011;3617;48.836;9.172;2022-09-21T04:46:53;10.27;;;5.97;;
7150;SDS011;3617;48.836;9.172;2022-09-21T04:49:19;9.27;;;5.33;;
7150;SDS011;3617;48.836;9.172;2022-09-21T04:51:45;10.33;;;5.77;;
7150;SDS011;3617;48.836;9.172;2022-09-21T04:54:11;13.77;;;6.97;;
7150;SDS011;3617;48.836;9.172;2022-09-21T04:56:37;11.30;;;7.13;;
7150;SDS011;3617;48.836;9.172;2022-09-21T04:59:02;13.40;;;8.33;;
7150;SDS011;3617;48.836;9.172;2022-09-21T05:01:29;13.17;;;7.53;;
7150;SDS011;3617;48.836;9.172;2022-09-21T05:03:55;11.90;;;7.33;;
7150;SDS011;3617;48.836;9.172;2022-09-21T05:06:25;10.37;;;6.70;;
7150;SDS011;3617;48.836;9.172;2022-09-21T05:08:51;11.03;;;6.67;;
7150;SDS011;3617;48.836;9.172;2022-09-21T05:11:36;10.67;;;6.10;;
7150;SDS011;3617;48.836;9.172;2022-09-21T05:14:03;7.93;;;5.23;;
7150;SDS011;3617;48.836;9.172;2022-09-21T05:16:28;8.60;;;5.27;;
7150;SDS011;3617;48.836;9.172;2022-09-21T05:18:54;13.30;;;6.33;;
7150;SDS011;3617;48.836;9.172;2022-09-21T05:21:21;7.43;;;4.97;;
7150;SDS011;3617;48.836;9.172;2022-09-21T05:23:47;8.43;;;5.23;;
7150;SDS011;3617;48.836;9.172;2022-09-21T05:26:13;8.47;;;5.50;;
7150;SDS011;3617;48.836;9.172;2022-09-21T05:28:39;10.90;;;5.80;;
7150;SDS011;3617;48.836;9.172;2022-09-21T05:34:04;9.73;;;6.00;;
7150;SDS011;3617;48.836;9.172;2022-09-21T05:39:16;9.20;;;5.73;;
7150;SDS011;3617;48.836;9.172;2022-09-21T05:41:42;9.07;;;5.73;;
7150;SDS011;3617;48.836;9.172;2022-09-21T05:44:10;10.07;;;6.10;;
7150;SDS011;3617;48.836;9.172;2022-09-21T05:46:41;11.30;;;6.30;;
7150;SDS011;3617;48.836;9.172;2022-09-21T05:51:38;10.27;;;5.60;;
7150;SDS011;3617;48.836;9.172;2022-09-21T05:59:07;11.60;;;6.77;;
7150;SDS011;3617;48.836;9.172;2022-09-21T06:04:03;11.13;;;6.50;;
7150;SDS011;3617;48.836;9.172;2022-09-21T06:06:29;13.43;;;6.27;;
7150;SDS011;3617;48.836;9.172;2022-09-21T06:08:55;10.73;;;6.17;;
7150;SDS011;3617;48.836;9.172;2022-09-21T06:11:21;9.10;;;6.00;;
7150;SDS011;3617;48.836;9.172;2022-09-21T06:13:47;9.17;;;6.13;;
7150;SDS011;3617;48.836;9.172;2022-09-21T06:16:13;9.90;;;6.17;;
7150;SDS011;3617;48.836;9.172;2022-09-21T06:18:39;10.23;;;6.77;;
7150;SDS011;3617;48.836;9.172;2022-09-21T06:21:06;9.77;;;6.23;;
7150;SDS011;3617;48.836;9.172;2022-09-21T06:23:32;8.67;;;5.70;;
7150;SDS011;3617;48.836;9.172;2022-09-21T06:25:58;7.97;;;5.60;;
7150;SDS011;3617;48.836;9.172;2022-09-21T06:28:25;8.47;;;5.93;;
7150;SDS011;3617;48.836;9.172;2022-09-21T06:30:52;8.00;;;5.80;;
7150;SDS011;3617;48.836;9.172;2022-09-21T06:33:19;9.40;;;5.60;;
7150;SDS011;3617;48.836;9.172;2022-09-21T06:35:57;10.67;;;5.27;;
7150;SDS011;3617;48.836;9.172;2022-09-21T06:38:24;6.67;;;4.53;;
7150;SDS011;3617;48.836;9.172;2022-09-21T06:40:50;7.13;;;5.17;;
7150;SDS011;3617;48.836;9.172;2022-09-21T06:43:17;10.63;;;4.80;;
7150;SDS011;3617;48.836;9.172;2022-09-21T06:45:43;9.10;;;4.53;;
7150;SDS011;3617;48.836;9.172;2022-09-21T06:48:16;7.07;;;4.67;;
7150;SDS011;3617;48.836;9.172;2022-09-21T06:50:42;8.27;;;4.87;;
7150;SDS011;3617;48.836;9.172;2022-09-21T06:53:08;7.13;;;4.13;;
7150;SDS011;3617;48.836;9.172;2022-09-21T06:55:34;5.23;;;4.30;;
7150;SDS011;3617;48.836;9.172;2022-09-21T06:58:01;6.43;;;4.63;;
7150;SDS011;3617;48.836;9.172;2022-09-21T07:00:27;6.93;;;4.20;;
7150;SDS011;3617;48.836;9.172;2022-09-21T07:02:53;7.07;;;4.20;;
7150;SDS011;3617;48.836;9.172;2022-09-21T07:05:19;7.20;;;4.47;;
7150;SDS011;3617;48.836;9.172;2022-09-21T07:07:45;6.93;;;4.67;;
7150;SDS011;3617;48.836;9.172;2022-09-21T07:10:11;5.90;;;4.80;;
7150;SDS011;3617;48.836;9.172;2022-09-21T07:12:37;6.50;;;4.40;;
7150;SDS011;3617;48.836;9.172;2022-09-21T07:15:03;6.37;;;4.50;;
7150;SDS011;3617;48.836;9.172;2022-09-21T07:17:33;6.60;;;4.40;;
7150;SDS011;3617;48.836;9.172;2022-09-21T07:20:00;8.33;;;4.97;;
7150;SDS011;3617;48.836;9.172;2022-09-21T07:22:30;7.30;;;4.27;;
7150;SDS011;3617;48.836;9.172;2022-09-21T07:24:56;6.53;;;4.93;;
7150;SDS011;3617;48.836;9.172;2022-09-21T07:27:23;7.77;;;4.63;;
7150;SDS011;3617;48.836;9.172;2022-09-21T07:29:49;9.43;;;5.23;;
7150;SDS011;3617;48.836;9.172;2022-09-21T07:32:15;6.73;;;4.50;;
7150;SDS011;3617;48.836;9.172;2022-09-21T07:34:41;7.20;;;4.70;;
7150;SDS011;3617;48.836;9.172;2022-09-21T07:37:07;7.30;;;4.60;;
7150;SDS011;3617;48.836;9.172;2022-09-21T07:39:33;10.33;;;4.83;;
7150;SDS011;3617;48.836;9.172;2022-09-21T07:41:59;6.40;;;4.67;;
7150;SDS011;3617;48.836;9.172;2022-09-21T07:44:25;8.23;;;4.97;;
7150;SDS011;3617;48.836;9.172;2022-09-21T07:46:51;7.17;;;4.83;;
7150;SDS011;3617;48.836;9.172;2022-09-21T07:49:17;7.07;;;4.95;;
7150;SDS011;3617;48.836;9.172;2022-09-21T07:51:43;6.60;;;4.60;;
7150;SDS011;3617;48.836;9.172;2022-09-21T07:54:10;8.13;;;4.65;;
7150;SDS011;3617;48.836;9.172;2022-09-21T07:56:37;7.88;;;4.20;;
7150;SDS011;3617;48.836;9.172;2022-09-21T07:59:03;7.30;;;4.10;;
7150;SDS011;3617;48.836;9.172;2022-09-21T08:01:30;7.38;;;4.43;;
7150;SDS011;3617;48.836;9.172;2022-09-21T08:03:56;8.02;;;4.40;;
7150;SDS011;3617;48.836;9.172;2022-09-21T08:06:23;7.30;;;4.05;;
7150;SDS011;3617;48.836;9.172;2022-09-21T08:08:49;8.73;;;4.38;;
7150;SDS011;3617;48.836;9.172;2022-09-21T08:11:16;7.80;;;3.88;;
7150;SDS011;3617;48.836;9.172;2022-09-21T08:13:43;4.85;;;3.38;;
7150;SDS011;3617;48.836;9.172;2022-09-21T08:16:09;5.03;;;2.95;;
7150;SDS011;3617;48.836;9.172;2022-09-21T08:18:36;3.85;;;3.03;;
7150;SDS011;3617;48.836;9.172;2022-09-21T08:21:03;5.40;;;3.25;;
7150;SDS011;3617;48.836;9.172;2022-09-21T08:23:29;6.72;;;2.78;;
7150;SDS011;3617;48.836;9.172;2022-09-21T08:25:58;4.88;;;2.92;;
7150;SDS011;3617;48.836;9.172;2022-09-21T08:28:25;3.47;;;2.50;;
7150;SDS011;3617;48.836;9.172;2022-09-21T08:30:51;3.33;;;2.20;;
7150;SDS011;3617;48.836;9.172;2022-09-21T08:33:17;4.43;;;2.50;;
7150;SDS011;3617;48.836;9.172;2022-09-21T08:35:50;4.07;;;2.38;;
7150;SDS011;3617;48.836;9.172;2022-09-21T08:38:16;6.07;;;2.90;;
7150;SDS011;3617;48.836;9.172;2022-09-21T08:40:42;3.13;;;2.53;;
7150;SDS011;3617;48.836;9.172;2022-09-21T08:43:12;4.13;;;2.83;;
7150;SDS011;3617;48.836;9.172;2022-09-21T08:45:39;2.80;;;2.10;;
7150;SDS011;3617;48.836;9.172;2022-09-21T08:48:11;4.95;;;2.47;;
7150;SDS011;3617;48.836;9.172;2022-09-21T08:50:40;4.40;;;3.10;;
7150;SDS011;3617;48.836;9.172;2022-09-21T08:53:12;4.82;;;3.00;;
7150;SDS011;3617;48.836;9.172;2022-09-21T08:55:38;4.28;;;3.10;;
7150;SDS011;3617;48.836;9.172;2022-09-21T08:58:12;4.57;;;2.67;;
7150;SDS011;3617;48.836;9.172;2022-09-21T09:00:41;5.28;;;2.70;;
7150;SDS011;3617;48.836;9.172;2022-09-21T09:03:23;3.42;;;1.73;;
7150;SDS011;3617;48.836;9.172;2022-09-21T09:06:00;2.92;;;1.90;;
7150;SDS011;3617;48.836;9.172;2022-09-21T09:11:25;2.97;;;1.80;;
7150;SDS011;3617;48.836;9.172;2022-09-21T09:19:18;3.38;;;1.83;;
7150;SDS011;3617;48.836;9.172;2022-09-21T09:21:44;4.28;;;1.70;;
7150;SDS011;3617;48.836;9.172;2022-09-21T09:24:13;3.70;;;1.80;;
7150;SDS011;3617;48.836;9.172;2022-09-21T09:26:42;2.30;;;1.80;;
7150;SDS011;3617;48.836;9.172;2022-09-21T09:29:12;3.30;;;2.10;;
7150;SDS011;3617;48.836;9.172;2022-09-21T09:31:40;2.53;;;1.95;;
7150;SDS011;3617;48.836;9.172;2022-09-21T09:34:10;3.20;;;1.65;;
7150;SDS011;3617;48.836;9.172;2022-09-21T09:36:38;2.45;;;1.65;;
7150;SDS011;3617;48.836;9.172;2022-09-21T09:39:10;4.57;;;1.70;;
7150;SDS011;3617;48.836;9.172;2022-09-21T09:49:36;2.70;;;1.80;;
7150;SDS011;3617;48.836;9.172;2022-09-21T09:52:03;2.80;;;1.77;;
7150;SDS011;3617;48.836;9.172;2022-09-21T09:54:32;2.10;;;1.70;;
7150;SDS011;3617;48.836;9.172;2022-09-21T09:57:00;3.08;;;1.50;;
7150;SDS011;3617;48.836;9.172;2022-09-21T09:59:34;1.88;;;1.50;;
7150;SDS011;3617;48.836;9.172;2022-09-21T10:02:05;1.63;;;1.50;;
7150;SDS011;3617;48.836;9.172;2022-09-21T10:04:31;3.30;;;1.70;;
7150;SDS011;3617;48.836;9.172;2022-09-21T10:07:00;4.00;;;2.30;;
7150;SDS011;3617;48.836;9.172;2022-09-21T10:09:30;2.13;;;1.80;;
7150;SDS011;3617;48.836;9.172;2022-09-21T10:12:00;3.58;;;1.90;;
7150;SDS011;3617;48.836;9.172;2022-09-21T10:14:30;2.88;;;1.90;;
7150;SDS011;3617;48.836;9.172;2022-09-21T10:16:58;3.17;;;1.90;;
7150;SDS011;3617;48.836;9.172;2022-09-21T10:19:28;3.30;;;1.80;;
7150;SDS011;3617;48.836;9.172;2022-09-21T10:21:58;3.58;;;1.52;;
7150;SDS011;3617;48.836;9.172;2022-09-21T10:24:32;3.33;;;1.60;;
7150;SDS011;3617;48.836;9.172;2022-09-21T10:29:31;4.90;;;2.00;;
7150;SDS011;3617;48.836;9.172;2022-09-21T10:32:01;4.03;;;1.75;;
7150;SDS011;3617;48.836;9.172;2022-09-21T10:34:31;1.88;;;1.77;;
7150;SDS011;3617;48.836;9.172;2022-09-21T10:36:58;2.08;;;1.80;;
7150;SDS011;3617;48.836;9.172;2022-09-21T10:41:58;2.17;;;1.73;;
7150;SDS011;3617;48.836;9.172;2022-09-21T10:44:27;1.92;;;1.20;;
7150;SDS011;3617;48.836;9.172;2022-09-21T10:46:54;2.22;;;1.15;;
7150;SDS011;3617;48.836;9.172;2022-09-21T10:49:21;2.97;;;1.52;;
7150;SDS011;3617;48.836;9.172;2022-09-21T10:51:48;2.00;;;1.23;;
7150;SDS011;3617;48.836;9.172;2022-09-21T10:54:33;2.03;;;1.33;;
7150;SDS011;3617;48.836;9.172;2022-09-21T10:57:00;3.40;;;1.40;;
7150;SDS011;3617;48.836;9.172;2022-09-21T10:59:28;2.15;;;1.20;;
7150;SDS011;3617;48.836;9.172;2022-09-21T11:01:55;1.33;;;1.20;;
7150;SDS011;3617;48.836;9.172;2022-09-21T11:09:34;1.88;;;1.20;;
7150;SDS011;3617;48.836;9.172;2022-09-21T11:12:06;2.95;;;1.10;;
7150;SDS011;3617;48.836;9.172;2022-09-21T11:14:44;4.90;;;1.03;;
7150;SDS011;3617;48.836;9.172;2022-09-21T11:17:26;2.40;;;1.17;;
7150;SDS011;3617;48.836;9.172;2022-09-21T11:20:03;1.50;;;1.07;;
7150;SDS011;3617;48.836;9.172;2022-09-21T11:22:39;1.73;;;1.00;;
7150;SDS011;3617;48.836;9.172;2022-09-21T11:27:56;1.27;;;0.93;;
7150;SDS011;3617;48.836;9.172;2022-09-21T11:30:25;0.87;;;0.80;;
7150;SDS011;3617;48.836;9.172;2022-09-21T11:41:07;0.83;;;0.80;;
7150;SDS011;3617;48.836;9.172;2022-09-21T11:46:17;0.60;;;0.60;;
7150;SDS011;3617;48.836;9.172;2022-09-21T11:48:58;0.60;;;0.60;;
7150;SDS011;3617;48.836;9.172;2022-09-21T11:54:16;0.63;;;0.63;;
7150;SDS011;3617;48.836;9.172;2022-09-21T11:56:49;1.25;;;0.80;;
7150;SDS011;3617;48.836;9.172;2022-09-21T12:06:58;0.70;;;0.70;;
7150;SDS011;3617;48.836;9.172;2022-09-21T12:19:46;0.50;;;0.50;;
7150;SDS011;3617;48.836;9.172;2022-09-21T12:22:17;0.93;;;0.63;;
7150;SDS011;3617;48.836;9.172;2022-09-21T12:24:46;0.70;;;0.70;;
7150;SDS011;3617;48.836;9.172;2022-09-21T12:27:31;0.70;;;0.70;;
7150;SDS011;3617;48.836;9.172;2022-09-21T12:30:00;0.80;;;0.70;;
7150;SDS011;3617;48.836;9.172;2022-09-21T12:32:45;2.00;;;0.90;;
7150;SDS011;3617;48.836;9.172;2022-09-21T12:35:19;2.57;;;0.83;;
7150;SDS011;3617;48.836;9.172;2022-09-21T12:37:50;1.47;;;0.80;;
7150;SDS011;3617;48.836;9.172;2022-09-21T12:40:42;1.40;;;1.10;;
7150;SDS011;3617;48.836;9.172;2022-09-21T12:43:19;0.70;;;0.70;;
7150;SDS011;3617;48.836;9.172;2022-09-21T12:45:54;1.08;;;0.80;;
7150;SDS011;3617;48.836;9.172;2022-09-21T12:50:51;1.30;;;1.07;;
7150;SDS011;3617;48.836;9.172;2022-09-21T12:53:20;0.70;;;0.70;;
7150;SDS011;3617;48.836;9.172;2022-09-21T12:55:59;2.10;;;1.00;;
7150;SDS011;3617;48.836;9.172;2022-09-21T12:58:33;2.23;;;0.80;;
7150;SDS011;3617;48.836;9.172;2022-09-21T13:03:43;0.80;;;0.80;;
7150;SDS011;3617;48.836;9.172;2022-09-21T13:06:29;0.77;;;0.73;;
7150;SDS011;3617;48.836;9.172;2022-09-21T13:09:00;1.37;;;0.73;;
7150;SDS011;3617;48.836;9.172;2022-09-21T13:11:29;0.90;;;0.70;;
7150;SDS011;3617;48.836;9.172;2022-09-21T13:13:56;0.97;;;0.83;;
7150;SDS011;3617;48.836;9.172;2022-09-21T13:16:29;1.03;;;0.80;;
7150;SDS011;3617;48.836;9.172;2022-09-21T13:18:57;0.73;;;0.73;;
7150;SDS011;3617;48.836;9.172;2022-09-21T13:21:25;0.80;;;0.70;;
7150;SDS011;3617;48.836;9.172;2022-09-21T13:24:00;0.70;;;0.70;;
7150;SDS011;3617;48.836;9.172;2022-09-21T13:26:28;0.60;;;0.60;;
7150;SDS011;3617;48.836;9.172;2022-09-21T13:28:59;0.73;;;0.60;;
7150;SDS011;3617;48.836;9.172;2022-09-21T13:31:28;2.63;;;0.70;;
7150;SDS011;3617;48.836;9.172;2022-09-21T13:34:06;2.50;;;0.80;;
7150;SDS011;3617;48.836;9.172;2022-09-21T13:36:34;2.17;;;0.93;;
7150;SDS011;3617;48.836;9.172;2022-09-21T13:41:33;2.00;;;0.90;;
7150;SDS011;3617;48.836;9.172;2022-09-21T13:44:02;0.70;;;0.70;;
7150;SDS011;3617;48.836;9.172;2022-09-21T13:49:02;0.90;;;0.70;;
7150;SDS011;3617;48.836;9.172;2022-09-21T13:51:33;0.70;;;0.70;;
7150;SDS011;3617;48.836;9.172;2022-09-21T13:54:00;0.60;;;0.60;;
7150;SDS011;3617;48.836;9.172;2022-09-21T13:56:27;2.00;;;0.70;;
7150;SDS011;3617;48.836;9.172;2022-09-21T13:58:54;1.00;;;0.90;;
7150;SDS011;3617;48.836;9.172;2022-09-21T14:01:31;1.53;;;0.80;;
7150;SDS011;3617;48.836;9.172;2022-09-21T14:03:59;0.70;;;0.70;;
7150;SDS011;3617;48.836;9.172;2022-09-21T14:06:33;1.23;;;0.83;;
7150;SDS011;3617;48.836;9.172;2022-09-21T14:09:07;1.20;;;0.90;;
7150;SDS011;3617;48.836;9.172;2022-09-21T14:11:43;0.60;;;0.60;;
7150;SDS011;3617;48.836;9.172;2022-09-21T14:16:56;1.07;;;0.90;;
7150;SDS011;3617;48.836;9.172;2022-09-21T14:24:33;1.27;;;0.83;;
7150;SDS011;3617;48.836;9.172;2022-09-21T14:27:12;1.27;;;0.80;;
7150;SDS011;3617;48.836;9.172;2022-09-21T14:32:18;1.00;;;0.83;;
7150;SDS011;3617;48.836;9.172;2022-09-21T14:34:47;1.17;;;0.90;;
7150;SDS011;3617;48.836;9.172;2022-09-21T14:37:25;1.10;;;0.80;;
7150;SDS011;3617;48.836;9.172;2022-09-21T14:39:53;0.93;;;0.80;;
7150;SDS011;3617;48.836;9.172;2022-09-21T14:42:21;1.70;;;0.77;;
7150;SDS011;3617;48.836;9.172;2022-09-21T14:44:47;1.60;;;0.70;;
7150;SDS011;3617;48.836;9.172;2022-09-21T14:58:37;1.00;;;0.80;;
7150;SDS011;3617;48.836;9.172;2022-09-21T15:01:18;1.47;;;0.70;;
7150;SDS011;3617;48.836;9.172;2022-09-21T15:06:36;1.27;;;0.67;;
7150;SDS011;3617;48.836;9.172;2022-09-21T15:09:34;0.80;;;0.70;;
7150;SDS011;3617;48.836;9.172;2022-09-21T15:12:26;0.80;;;0.77;;
7150;SDS011;3617;48.836;9.172;2022-09-21T15:17:49;0.60;;;0.60;;
7150;SDS011;3617;48.836;9.172;2022-09-21T15:20:19;1.03;;;0.80;;
7150;SDS011;3617;48.836;9.172;2022-09-21T15:22:45;1.20;;;0.83;;
7150;SDS011;3617;48.836;9.172;2022-09-21T15:25:12;0.70;;;0.70;;
7150;SDS011;3617;48.836;9.172;2022-09-21T15:27:41;1.57;;;0.83;;
7150;SDS011;3617;48.836;9.172;2022-09-21T15:30:17;0.63;;;0.63;;
7150;SDS011;3617;48.836;9.172;2022-09-21T15:32:43;0.60;;;0.60;;
7150;SDS011;3617;48.836;9.172;2022-09-21T15:37:39;1.53;;;0.70;;
7150;SDS011;3617;48.836;9.172;2022-09-21T15:40:06;0.70;;;0.70;;
7150;SDS011;3617;48.836;9.172;2022-09-21T15:42:47;1.20;;;0.80;;
7150;SDS011;3617;48.836;9.172;2022-09-21T15:45:24;1.03;;;0.77;;
7150;SDS011;3617;48.836;9.172;2022-09-21T15:47:51;0.90;;;0.70;;
7150;SDS011;3617;48.836;9.172;2022-09-21T15:50:17;1.27;;;0.80;;
7150;SDS011;3617;48.836;9.172;2022-09-21T15:52:48;1.03;;;0.80;;
7150;SDS011;3617;48.836;9.172;2022-09-21T15:55:17;0.97;;;0.87;;
7150;SDS011;3617;48.836;9.172;2022-09-21T15:57:56;2.20;;;0.90;;
7150;SDS011;3617;48.836;9.172;2022-09-21T16:00:27;0.80;;;0.80;;
7150;SDS011;3617;48.836;9.172;2022-09-21T16:03:01;0.80;;;0.80;;
7150;SDS011;3617;48.836;9.172;2022-09-21T16:05:29;1.70;;;1.00;;
7150;SDS011;3617;48.836;9.172;2022-09-21T16:08:15;1.03;;;0.90;;
7150;SDS011;3617;48.836;9.172;2022-09-21T16:10:42;0.93;;;0.80;;
7150;SDS011;3617;48.836;9.172;2022-09-21T16:13:18;0.83;;;0.70;;
7150;SDS011;3617;48.836;9.172;2022-09-21T16:16:05;1.03;;;0.90;;
7150;SDS011;3617;48.836;9.172;2022-09-21T16:18:38;1.00;;;0.90;;
7150;SDS011;3617;48.836;9.172;2022-09-21T16:21:10;1.97;;;0.97;;
7150;SDS011;3617;48.836;9.172;2022-09-21T16:23:38;0.70;;;0.70;;
7150;SDS011;3617;48.836;9.172;2022-09-21T16:26:04;0.90;;;0.90;;
7150;SDS011;3617;48.836;9.172;2022-09-21T16:28:37;0.80;;;0.80;;
7150;SDS011;3617;48.836;9.172;2022-09-21T16:38:44;0.93;;;0.83;;
7150;SDS011;3617;48.836;9.172;2022-09-21T16:41:11;0.90;;;0.80;;
7150;SDS011;3617;48.836;9.172;2022-09-21T16:43:38;2.53;;;0.83;;
7150;SDS011;3617;48.836;9.172;2022-09-21T16:46:07;2.00;;;0.90;;
7150;SDS011;3617;48.836;9.172;2022-09-21T16:48:33;0.97;;;0.90;;
7150;SDS011;3617;48.836;9.172;2022-09-21T16:50:59;1.83;;;0.90;;
7150;SDS011;3617;48.836;9.172;2022-09-21T16:53:26;0.80;;;0.80;;
7150;SDS011;3617;48.836;9.172;2022-09-21T16:55:52;1.13;;;0.90;;
7150;SDS011;3617;48.836;9.172;2022-09-21T16:58:18;1.43;;;0.97;;
7150;SDS011;3617;48.836;9.172;2022-09-21T17:00:44;1.23;;;0.80;;
7150;SDS011;3617;48.836;9.172;2022-09-21T17:03:11;0.70;;;0.70;;
7150;SDS011;3617;48.836;9.172;2022-09-21T17:05:39;1.00;;;0.90;;
7150;SDS011;3617;48.836;9.172;2022-09-21T17:08:05;1.77;;;0.97;;
7150;SDS011;3617;48.836;9.172;2022-09-21T17:10:33;1.10;;;1.00;;
7150;SDS011;3617;48.836;9.172;2022-09-21T17:13:01;1.10;;;1.00;;
7150;SDS011;3617;48.836;9.172;2022-09-21T17:15:30;1.50;;;1.10;;
7150;SDS011;3617;48.836;9.172;2022-09-21T17:17:57;1.13;;;1.00;;
7150;SDS011;3617;48.836;9.172;2022-09-21T17:20:30;1.37;;;0.90;;
7150;SDS011;3617;48.836;9.172;2022-09-21T17:22:57;1.00;;;0.90;;
7150;SDS011;3617;48.836;9.172;2022-09-21T17:25:25;0.90;;;0.90;;
7150;SDS011;3617;48.836;9.172;2022-09-21T17:27:51;2.20;;;1.20;;
7150;SDS011;3617;48.836;9.172;2022-09-21T17:30:17;1.50;;;1.20;;
7150;SDS011;3617;48.836;9.172;2022-09-21T17:32:45;4.83;;;3.27;;
7150;SDS011;3617;48.836;9.172;2022-09-21T17:37:58;1.77;;;1.37;;
7150;SDS011;3617;48.836;9.172;2022-09-21T17:40:25;1.90;;;1.63;;
7150;SDS011;3617;48.836;9.172;2022-09-21T17:42:51;1.60;;;1.40;;
7150;SDS011;3617;48.836;9.172;2022-09-21T17:47:45;4.30;;;2.17;;
7150;SDS011;3617;48.836;9.172;2022-09-21T17:52:47;1.80;;;1.50;;
7150;SDS011;3617;48.836;9.172;2022-09-21T17:55:32;3.90;;;2.27;;
7150;SDS011;3617;48.836;9.172;2022-09-21T17:58:22;3.90;;;2.83;;
7150;SDS011;3617;48.836;9.172;2022-09-21T18:03:15;4.23;;;3.53;;
7150;SDS011;3617;48.836;9.172;2022-09-21T18:05:44;3.33;;;2.77;;
7150;SDS011;3617;48.836;9.172;2022-09-21T18:08:11;2.40;;;2.20;;